Stations météo

Publicité
Carpentras, France (7586): Température de l'air & dewpoint: 15.10.2019 04:00:00 - 21.10.2019 04:00:00 (CEST)Carpentras, France (7586): Température de l'air 5cm: 15.10.2019 04:00:00 - 21.10.2019 04:00:00 (CEST)Carpentras, France (7586): Vitesse du vent & gusts: 15.10.2019 04:00:00 - 21.10.2019 04:00:00 (CEST)Carpentras, France (7586): Direction du vent: 15.10.2019 04:00:00 - 21.10.2019 04:00:00 (CEST)Carpentras, France (7586): reduced air pressure: 15.10.2019 04:00:00 - 21.10.2019 04:00:00 (CEST)Carpentras, France (7586): Ensoleillement: 15.10.2019 04:00:00 - 21.10.2019 04:00:00 (CEST)Carpentras, France (7586): Quantités de précipitations: 15.10.2019 04:00:00 - 21.10.2019 04:00:00 (CEST)
Date & Time tt [°C] td [°C] tt 5cm [°C] ff [km/h] ff [knt] fx [km/h] fx [knt] dd ppp [hPa] sd [min] rr [mm]
21.10.2019 04:00:00 - - - - - - - - - - -
21.10.2019 03:00:00 16,8 14,8 16,2 10 5 24 13 SE 1015,8 0 0,0
21.10.2019 02:00:00 17,1 16,3 16,8 9 5 20 11 SE 1015,4 0 0,0
21.10.2019 01:00:00 17,2 16,4 16,5 0 0 15 8 N 1014,3 0 0,0
21.10.2019 00:00:00 17,7 16,9 17,1 6 3 36 20 ESE 1012,5 0 3,2
20.10.2019 23:00:00 18,0 17,0 17,2 10 6 46 25 S 1012,2 0 7,8
20.10.2019 22:00:00 18,0 16,3 17,1 10 5 41 22 ESE 1010,9 0 1,2
20.10.2019 21:00:00 18,2 16,4 17,1 12 7 49 26 SE 1011,6 0 3,7
20.10.2019 20:00:00 21,2 14,8 20,2 19 10 56 30 SE 1011,1 0 0,0
20.10.2019 19:00:00 21,8 14,9 21,4 23 12 57 31 SE 1009,9 0 0,0
20.10.2019 18:00:00 22,9 14,5 22,8 24 13 62 34 SE 1009,1 6 0,0
20.10.2019 17:00:00 23,3 14,6 23,7 28 15 61 33 SE 1008,3 0 0,0
20.10.2019 16:00:00 23,6 14,9 24,4 24 13 61 33 SE 1008,4 0 0,0
20.10.2019 15:00:00 24,1 14,8 25,3 26 14 59 32 SE 1007,9 26 0,0
20.10.2019 14:00:00 24,7 14,2 26,4 26 14 64 35 SE 1008,5 38 0,0
20.10.2019 13:00:00 25,2 14,0 27,9 27 15 70 38 SE 1008,2 60 0,0
20.10.2019 12:00:00 24,0 12,9 25,2 28 15 68 37 SE 1008,2 60 0,0
20.10.2019 11:00:00 23,1 13,0 22,8 31 17 61 33 ESE 1008,7 50 0,0
20.10.2019 10:00:00 21,7 13,1 21,0 25 14 62 34 ESE 1009,0 7 0,0
20.10.2019 09:00:00 21,0 13,4 20,2 27 14 55 30 ESE 1009,1 0 0,0
20.10.2019 08:00:00 20,7 13,6 19,9 30 16 61 33 SE 1008,2 0 0,0
20.10.2019 07:00:00 20,5 14,2 19,3 23 12 50 27 SE 1008,3 0 0,0
20.10.2019 06:00:00 19,7 14,7 17,6 16 9 45 24 SE 1008,7 0 0,0
20.10.2019 05:00:00 20,4 14,3 19,6 24 13 52 28 ESE 1008,5 0 0,0
20.10.2019 04:00:00 20,0 13,9 19,1 21 12 43 23 SE 1009,1 0 0,0
20.10.2019 03:00:00 19,9 14,0 18,8 20 11 42 23 SE 1009,8 0 0,0
20.10.2019 02:00:00 19,6 14,4 18,7 15 8 37 20 SE 1009,9 0 0,0
20.10.2019 01:00:00 19,6 14,8 17,9 15 8 34 18 SE 1010,1 0 0,0
20.10.2019 00:00:00 19,3 15,2 17,9 11 6 27 14 SE 1010,0 0 0,0
19.10.2019 23:00:00 19,3 15,2 18,1 11 6 28 15 SE 1009,9 0 0,0
19.10.2019 22:00:00 19,4 15,3 16,9 11 6 28 15 SE 1010,0 0 0,0
19.10.2019 21:00:00 19,4 15,1 17,0 6 4 42 23 SSE 1009,9 0 0,0
19.10.2019 20:00:00 20,4 15,4 19,4 12 6 32 18 SSE 1009,9 0 0,0
19.10.2019 19:00:00 21,0 15,3 20,4 9 5 35 19 SE 1009,3 0 0,0
19.10.2019 18:00:00 21,8 15,4 22,1 15 8 42 23 SSE 1009,3 0 0,0
19.10.2019 17:00:00 22,4 15,3 23,1 15 8 44 24 SSE 1009,4 0 0,0
19.10.2019 16:00:00 22,7 15,5 23,2 20 11 48 26 SSE 1009,2 0 0,0
19.10.2019 15:00:00 22,5 15,6 22,8 16 9 42 23 SSE 1009,1 0 0,0
19.10.2019 14:00:00 22,9 15,7 24,3 18 10 42 23 SSE 1009,4 4 0,0
19.10.2019 13:00:00 23,6 16,9 24,6 16 9 41 22 SSE 1010,0 16 0,0
19.10.2019 12:00:00 23,8 16,8 23,2 17 9 37 20 SE 1010,4 19 0,0
19.10.2019 11:00:00 21,4 16,4 22,0 15 8 33 18 SE 1010,6 3 0,0
19.10.2019 10:00:00 21,1 16,1 20,6 16 9 34 19 SE 1010,7 22 0,0
19.10.2019 09:00:00 19,7 16,0 17,7 14 8 32 17 SE 1010,6 14 0,0
19.10.2019 08:00:00 18,7 15,8 17,5 9 5 21 11 SE 1010,6 0 0,0
19.10.2019 07:00:00 18,5 15,7 16,9 9 5 24 13 SE 1010,7 0 0,2
19.10.2019 06:00:00 18,4 15,6 17,0 9 5 23 12 SE 1010,8 0 0,0
19.10.2019 05:00:00 18,6 15,3 17,2 12 7 31 17 SE 1011,2 0 0,0
19.10.2019 04:00:00 18,5 15,0 16,6 14 7 28 15 SE 1011,3 0 0,0
19.10.2019 03:00:00 18,0 14,9 16,4 9 5 28 15 SE 1012,0 0 0,0
19.10.2019 02:00:00 17,2 15,4 16,4 8 5 19 11 ESE 1012,2 0 0,0
19.10.2019 01:00:00 17,0 15,9 16,4 8 5 28 15 ESE 1012,9 0 1,2
19.10.2019 00:00:00 18,0 15,4 16,5 12 6 28 15 ESE 1012,8 0 0,8
18.10.2019 23:00:00 19,5 13,9 18,7 9 5 22 12 SE 1013,5 0 0,0
18.10.2019 22:00:00 19,0 13,4 17,8 7 4 19 10 ESE 1014,0 0 0,0
18.10.2019 21:00:00 19,1 13,7 16,7 9 5 23 12 SE 1014,1 0 0,0
18.10.2019 20:00:00 19,1 13,7 17,1 8 4 18 10 ESE 1014,2 0 0,0
18.10.2019 19:00:00 19,7 13,8 18,8 7 4 19 10 SE 1013,8 0 0,0
18.10.2019 18:00:00 21,2 14,4 21,3 8 4 22 12 SE 1013,9 1 0,0
18.10.2019 17:00:00 22,3 14,4 23,2 11 6 22 12 SE 1014,1 22 0,0
18.10.2019 16:00:00 23,0 14,3 23,7 9 5 22 12 SSE 1014,1 9 0,0
18.10.2019 15:00:00 22,6 13,9 24,5 9 5 29 15 SE 1014,6 8 0,0
18.10.2019 14:00:00 22,8 13,6 22,5 11 6 24 13 ESE 1015,1 5 0,0
18.10.2019 13:00:00 21,2 13,9 21,5 10 5 26 14 SE 1016,1 3 0,0
18.10.2019 12:00:00 20,3 13,3 20,4 8 5 24 13 SE 1016,5 0 0,0
18.10.2019 11:00:00 20,2 12,7 19,6 9 5 19 11 SE 1016,2 0 0,0
18.10.2019 10:00:00 19,2 12,2 18,8 7 4 21 12 ESE 1016,0 0 0,0
18.10.2019 09:00:00 18,2 12,6 13,2 9 5 21 12 E 1015,8 0 0,0
18.10.2019 08:00:00 15,6 12,3 13,0 3 2 11 6 SSE 1015,8 0 0,0
18.10.2019 07:00:00 16,0 12,7 12,7 6 3 12 7 E 1015,6 0 0,0
18.10.2019 06:00:00 16,2 12,6 13,2 5 3 14 8 ESE 1015,8 0 0,0
18.10.2019 05:00:00 17,2 12,5 15,1 7 4 18 10 ESE 1016,0 0 0,0
18.10.2019 04:00:00 17,5 12,6 15,5 10 5 22 12 ESE 1016,3 0 0,0
18.10.2019 03:00:00 18,2 12,6 17,0 9 5 21 11 ESE 1016,7 0 0,0
18.10.2019 02:00:00 18,2 12,6 17,4 6 4 20 11 ESE 1017,2 0 0,0
18.10.2019 01:00:00 18,1 12,8 17,3 8 4 16 8 ESE 1017,2 0 0,0
18.10.2019 00:00:00 18,2 12,9 17,5 6 4 16 9 ESE 1017,9 0 0,0
17.10.2019 23:00:00 18,1 13,0 17,0 5 3 14 8 ESE 1018,2 0 0,0
17.10.2019 22:00:00 17,7 13,2 16,9 6 3 19 10 ESE 1017,7 0 0,0
17.10.2019 21:00:00 18,3 13,4 17,5 10 5 22 12 SE 1017,4 0 0,0
17.10.2019 20:00:00 18,9 13,3 18,3 8 4 20 11 SE 1017,1 0 0,0
17.10.2019 19:00:00 19,9 13,6 19,5 8 4 20 11 SE 1016,6 0 0,0
17.10.2019 18:00:00 21,2 11,8 21,0 9 5 - - SSE - 4 0,0
17.10.2019 17:00:00 21,8 -6,9 - - - - - - - - -
17.10.2019 16:00:00 22,5 12,7 23,2 - - - - - 1016,6 8 0,0
17.10.2019 15:00:00 23,1 13,6 22,3 - - - - - 1016,6 19 0,0
17.10.2019 14:00:00 21,1 13,0 22,0 11 6 35 19 SSE 1017,0 12 0,0
17.10.2019 13:00:00 22,4 13,2 24,3 16 9 - - SE 1017,6 38 0,0
17.10.2019 12:00:00 22,4 13,7 24,1 - - - - - 1018,2 41 0,0
17.10.2019 11:00:00 20,6 13,3 22,4 - - 29 16 - 1017,9 56 0,0
17.10.2019 10:00:00 20,5 13,7 16,2 10 5 19 11 SE 1017,9 50 0,0
17.10.2019 09:00:00 16,3 12,5 12,3 6 3 18 10 ESE 1018,1 12 0,0
17.10.2019 08:00:00 14,7 11,8 10,9 6 3 16 9 ESE 1017,1 0 0,0
17.10.2019 07:00:00 13,9 11,6 10,2 5 3 12 7 ESE 1017,2 0 0,0
17.10.2019 06:00:00 15,0 11,4 11,9 7 4 14 8 E 1017,0 0 0,0
17.10.2019 05:00:00 15,4 11,4 12,4 6 3 16 9 ESE 1017,3 0 0,0
17.10.2019 04:00:00 15,2 11,2 11,1 8 5 19 11 E 1017,6 0 0,0
17.10.2019 03:00:00 14,3 10,7 10,9 8 4 16 8 E 1018,1 0 0,0
17.10.2019 02:00:00 14,7 10,7 12,5 5 3 14 7 ESE 1018,2 0 0,0
17.10.2019 01:00:00 15,0 10,8 13,3 7 4 19 10 ESE 1017,7 0 0,0
17.10.2019 00:00:00 14,4 9,6 12,3 10 5 19 10 E 1018,1 0 0,0
16.10.2019 23:00:00 13,3 9,0 9,8 9 5 17 9 E 1017,9 0 0,0
16.10.2019 22:00:00 12,5 9,0 9,5 5 3 11 6 E 1017,8 0 0,0
16.10.2019 21:00:00 12,3 9,8 9,5 7 4 9 5 E 1017,5 0 0,0
16.10.2019 20:00:00 13,5 10,5 10,5 3 2 7 4 ESE 1017,4 0 0,0
16.10.2019 19:00:00 15,8 10,8 12,4 3 2 5 3 E 1016,5 20 0,0
16.10.2019 18:00:00 19,5 8,5 18,5 0 0 4 2 N 1016,1 46 0,0
16.10.2019 17:00:00 20,8 7,8 23,4 0 0 8 4 N 1016,5 40 0,0
16.10.2019 16:00:00 21,1 7,3 25,0 4 2 11 6 S 1017,1 60 0,0
16.10.2019 15:00:00 21,3 7,1 26,9 5 3 12 7 WSW 1017,4 60 0,0
16.10.2019 14:00:00 20,7 6,2 26,9 4 2 10 5 WNW 1017,8 60 0,0
16.10.2019 13:00:00 18,9 7,6 25,9 3 2 8 4 S 1018,4 60 0,0
16.10.2019 12:00:00 16,5 8,5 23,0 3 2 11 6 SSW 1019,1 60 0,0
16.10.2019 11:00:00 13,6 8,8 18,9 3 2 6 4 SSW 1019,5 60 0,0
16.10.2019 10:00:00 10,2 9,3 6,9 3 1 7 4 WSW 1019,9 60 0,0
16.10.2019 09:00:00 6,7 6,6 4,1 2 1 8 5 E 1019,5 31 0,0
16.10.2019 08:00:00 5,6 5,3 3,9 4 2 8 4 SE 1019,1 0 0,0
16.10.2019 07:00:00 5,7 5,1 4,1 0 0 8 5 N 1019,1 0 0,0
16.10.2019 06:00:00 5,9 5,3 4,4 3 1 8 4 SE 1018,7 0 0,0
16.10.2019 05:00:00 6,7 6,4 4,5 6 3 9 5 E 1018,9 0 0,0
16.10.2019 04:00:00 7,0 6,4 5,0 4 2 8 4 E 1018,9 0 0,0
16.10.2019 03:00:00 7,6 7,0 5,6 4 2 8 4 ESE 1018,8 0 0,0
16.10.2019 02:00:00 8,0 7,2 5,9 4 2 6 4 SE 1018,7 0 0,0
16.10.2019 01:00:00 8,6 7,8 6,7 4 2 8 4 S 1018,4 0 0,0
16.10.2019 00:00:00 9,3 7,7 7,1 3 2 6 4 E 1018,1 0 0,0
15.10.2019 23:00:00 10,5 7,7 8,0 3 2 12 7 SW 1018,0 0 0,0
15.10.2019 22:00:00 12,0 7,7 9,0 2 1 12 7 WSW 1017,4 0 0,0
15.10.2019 21:00:00 13,7 8,1 11,2 8 4 15 8 W 1017,0 0 0,0
15.10.2019 20:00:00 13,8 7,8 10,9 2 1 18 10 W 1016,2 0 0,0
15.10.2019 19:00:00 16,4 8,1 14,6 6 3 18 10 W 1015,0 46 0,0
15.10.2019 18:00:00 18,3 8,3 17,7 11 6 24 13 W 1013,9 60 0,0
15.10.2019 17:00:00 19,8 8,2 20,3 12 6 24 13 W 1013,3 53 0,0
15.10.2019 16:00:00 19,8 9,4 23,9 8 5 18 10 NW 1013,1 48 0,0
15.10.2019 15:00:00 19,6 10,8 19,5 7 4 22 12 WNW 1012,7 31 0,0
15.10.2019 14:00:00 18,1 13,2 17,4 9 5 20 11 W 1012,5 11 0,0
15.10.2019 13:00:00 16,9 13,0 17,8 9 5 17 9 WNW 1012,6 20 0,0
15.10.2019 12:00:00 16,1 15,6 16,0 7 4 18 10 W 1012,0 0 0,0
15.10.2019 11:00:00 15,9 15,3 15,7 9 5 19 10 W 1011,2 0 0,2
15.10.2019 10:00:00 15,6 15,1 15,3 5 3 14 8 S 1010,6 0 0,8
15.10.2019 09:00:00 15,3 14,7 15,0 7 4 22 12 SE 1009,9 0 1,6
15.10.2019 08:00:00 15,2 14,6 14,5 13 7 24 13 E 1009,4 0 1,4
15.10.2019 07:00:00 15,0 14,4 14,0 10 5 45 24 ESE 1009,7 0 10,4
15.10.2019 06:00:00 15,8 14,2 14,8 22 12 62 34 SSE 1009,0 0 13,0
15.10.2019 05:00:00 20,5 14,8 18,6 22 12 53 28 ESE 1007,8 0 0,0
15.10.2019 04:00:00 21,4 13,8 19,3 23 12 58 32 ESE 1008,5 0 0,0

tt = Température de l'air
td = dewpoint
tt 5cm = Température de l'air 5cm
ff = Vitesse du vent
fx = gusts
dd = Direction du vent
ppp = reduced air pressure
sd = Ensoleillement
rr = Quantités de précipitations

stations d'obs. à proximité